Manitou Springs, Colorado
Current Conditions -  °F | °C
As of 4:56 PM on Friday 24 Oct 2014 (Local Time) from KCWN Reporting Station
Clear Clear  
Wind Chill: 69°   Ceiling: Unl
Heat Index: 69°   Visibility: 10mi
Dew Point: 17°   Wind: 9mph
Humidity: 14%   Direction: 170°S
Pressure: 30.24"   Gusts: NA
Location:  38.86°N, 104.92°W
Report Text: KCWN 242256Z AUTO 17008KT 10SM CLR 20/M09 A3024 RMK AO2 SLP167 T02041086
Loading
Personal Weather Stations






























Interactive Weather Map New forecast layout! Learn more

10-Day Weather Forecast

Advertisements
Track Severe Weather on mobile